createdAt,value
2018-05-21T00:01:05.093Z,16.60
2018-05-21T00:03:33.351Z,16.60
2018-05-21T00:06:01.626Z,16.60
2018-05-21T00:08:29.896Z,16.50
2018-05-21T00:10:58.154Z,16.50
2018-05-21T00:13:27.175Z,16.40
2018-05-21T00:15:55.444Z,16.30
2018-05-21T00:18:23.727Z,16.30
2018-05-21T00:20:51.978Z,16.30
2018-05-21T00:23:20.992Z,16.20
2018-05-21T00:25:49.257Z,16.20
2018-05-21T00:28:18.357Z,16.10
2018-05-21T00:30:46.635Z,16.10
2018-05-21T00:33:14.921Z,16.10
2018-05-21T00:35:43.226Z,16.00
2018-05-21T00:38:11.517Z,16.00
2018-05-21T00:40:39.778Z,16.00
2018-05-21T00:43:08.030Z,15.90
2018-05-21T00:45:36.264Z,15.90
2018-05-21T00:48:05.274Z,15.80
2018-05-21T00:50:34.311Z,15.80
2018-05-21T00:53:02.550Z,15.70
2018-05-21T00:55:37.482Z,15.70
2018-05-21T00:58:06.490Z,15.60
2018-05-21T01:00:34.748Z,15.60
2018-05-21T01:03:03.741Z,15.60
2018-05-21T01:05:32.795Z,15.60
2018-05-21T01:08:01.038Z,15.50
2018-05-21T01:10:29.333Z,15.60
2018-05-21T01:12:57.558Z,15.60
2018-05-21T01:15:26.596Z,15.50
2018-05-21T01:17:54.964Z,15.50
2018-05-21T01:20:23.183Z,15.50
2018-05-21T01:22:51.414Z,15.50
2018-05-21T01:25:19.685Z,15.50
2018-05-21T01:27:47.964Z,15.40
2018-05-21T01:30:16.184Z,15.40
2018-05-21T01:32:44.424Z,15.40
2018-05-21T01:35:12.656Z,15.40
2018-05-21T01:37:41.646Z,15.30
2018-05-21T01:40:10.671Z,15.20
2018-05-21T01:42:38.955Z,15.20
2018-05-21T01:45:07.239Z,15.20
2018-05-21T01:47:35.467Z,15.10
2018-05-21T01:50:03.814Z,15.10
2018-05-21T01:52:32.091Z,15.10
2018-05-21T01:55:00.467Z,15.10
2018-05-21T01:57:28.708Z,15.00
2018-05-21T01:59:56.947Z,15.00
2018-05-21T02:02:25.173Z,15.00
2018-05-21T02:04:53.440Z,14.90
2018-05-21T02:07:21.668Z,14.90
2018-05-21T02:09:49.907Z,14.90
2018-05-21T02:12:18.140Z,14.90
2018-05-21T02:14:47.144Z,14.80
2018-05-21T02:17:16.167Z,14.80
2018-05-21T02:19:44.422Z,14.70
2018-05-21T02:22:13.471Z,14.80
2018-05-21T02:24:41.761Z,14.70
2018-05-21T02:27:10.053Z,14.70
2018-05-21T02:29:39.078Z,14.70
2018-05-21T02:32:07.333Z,14.60
2018-05-21T02:34:36.441Z,14.60
2018-05-21T02:37:05.484Z,14.60
2018-05-21T02:39:33.790Z,14.60
2018-05-21T02:42:02.841Z,14.50
2018-05-21T02:44:31.124Z,14.50
2018-05-21T02:46:59.368Z,14.50
2018-05-21T02:49:27.651Z,14.50
2018-05-21T02:51:55.950Z,14.50
2018-05-21T02:54:24.220Z,14.40
2018-05-21T02:56:52.519Z,14.40
2018-05-21T02:59:20.823Z,14.30
2018-05-21T03:01:49.895Z,14.30
2018-05-21T03:04:18.190Z,14.20
2018-05-21T03:06:46.479Z,14.20
2018-05-21T03:09:15.575Z,14.20
2018-05-21T03:11:43.815Z,14.10
2018-05-21T03:14:12.137Z,14.10
2018-05-21T03:16:41.186Z,14.10
2018-05-21T03:19:09.475Z,14.00
2018-05-21T03:21:37.712Z,14.00
2018-05-21T03:24:05.957Z,14.00
2018-05-21T03:26:34.983Z,13.90
2018-05-21T03:29:03.236Z,13.90
2018-05-21T03:31:31.469Z,13.90
2018-05-21T03:33:59.727Z,13.90
2018-05-21T03:36:27.972Z,13.80
2018-05-21T03:38:56.187Z,13.80
2018-05-21T03:41:24.489Z,13.80
2018-05-21T03:43:53.551Z,13.70
2018-05-21T03:46:21.823Z,13.70
2018-05-21T03:48:50.107Z,13.70
2018-05-21T03:51:18.371Z,13.70
2018-05-21T03:53:46.644Z,13.70
2018-05-21T03:56:15.029Z,13.60
2018-05-21T03:59:01.201Z,13.60
2018-05-21T04:01:47.378Z,13.60
2018-05-21T04:04:16.394Z,13.60
2018-05-21T04:06:44.628Z,13.50
2018-05-21T04:09:12.855Z,13.50
2018-05-21T04:11:41.085Z,13.50
2018-05-21T04:14:09.312Z,13.50
2018-05-21T04:16:37.558Z,13.50
2018-05-21T04:19:06.575Z,13.50
2018-05-21T04:21:34.820Z,13.50
2018-05-21T04:24:03.864Z,13.50
2018-05-21T04:26:32.179Z,13.40
2018-05-21T04:29:00.490Z,13.50
2018-05-21T04:31:28.776Z,13.50
2018-05-21T04:33:57.051Z,13.50
2018-05-21T04:36:25.373Z,13.50
2018-05-21T04:38:53.586Z,13.60
2018-05-21T04:41:22.597Z,13.60
2018-05-21T04:43:50.898Z,13.50
2018-05-21T04:46:19.156Z,13.70
2018-05-21T04:48:47.468Z,13.70
2018-05-21T04:51:15.735Z,13.80
2018-05-21T04:53:43.990Z,13.80
2018-05-21T04:56:12.274Z,13.90
2018-05-21T04:58:40.975Z,13.90
2018-05-21T05:01:09.265Z,14.00
2018-05-21T05:03:37.534Z,14.00
2018-05-21T05:06:05.813Z,14.00
2018-05-21T05:08:34.079Z,14.10
2018-05-21T05:11:02.391Z,14.10
2018-05-21T05:13:31.426Z,14.20
2018-05-21T05:15:59.745Z,14.10
2018-05-21T05:18:28.023Z,14.20
2018-05-21T05:20:56.350Z,14.30
2018-05-21T05:23:24.592Z,14.30
2018-05-21T05:25:52.850Z,14.30
2018-05-21T05:28:21.095Z,14.40
2018-05-21T05:30:49.363Z,14.40
2018-05-21T05:33:17.623Z,14.50
2018-05-21T05:35:45.858Z,14.60
2018-05-21T05:38:14.133Z,14.60
2018-05-21T05:40:42.373Z,14.70
2018-05-21T05:43:10.637Z,14.90
2018-05-21T05:45:38.922Z,15.00
2018-05-21T05:48:07.213Z,15.10
2018-05-21T05:50:35.509Z,15.30
2018-05-21T05:53:03.777Z,15.50
2018-05-21T05:55:32.044Z,15.70
2018-05-21T05:58:00.328Z,15.90
2018-05-21T06:00:29.437Z,16.30
2018-05-21T06:02:57.768Z,16.30
2018-05-21T06:05:26.016Z,16.50
2018-05-21T06:07:55.064Z,16.90
2018-05-21T06:10:23.303Z,16.90
2018-05-21T06:12:52.341Z,17.30
2018-05-21T06:15:20.628Z,17.20
2018-05-21T06:17:48.883Z,17.40
2018-05-21T06:20:17.163Z,17.60
2018-05-21T06:22:45.412Z,17.70
2018-05-21T06:25:13.706Z,17.90
2018-05-21T06:27:41.952Z,18.00
2018-05-21T06:30:10.977Z,18.30
2018-05-21T06:32:39.232Z,18.30
2018-05-21T06:35:08.300Z,18.60
2018-05-21T06:37:36.629Z,18.60
2018-05-21T06:40:04.904Z,18.70
2018-05-21T06:42:33.934Z,19.00
2018-05-21T06:45:02.200Z,18.90
2018-05-21T06:47:30.452Z,19.00
2018-05-21T06:49:58.728Z,19.10
2018-05-21T06:52:27.011Z,19.20
2018-05-21T06:54:55.287Z,19.30
2018-05-21T06:57:23.574Z,19.40
2018-05-21T06:59:51.886Z,19.60
2018-05-21T07:02:21.008Z,19.80
2018-05-21T07:04:50.051Z,19.80
2018-05-21T07:07:18.308Z,19.80
2018-05-21T07:09:46.571Z,19.90
2018-05-21T07:12:14.919Z,20.00
2018-05-21T07:14:43.946Z,20.10
2018-05-21T07:17:12.244Z,20.10
2018-05-21T07:19:40.511Z,20.20
2018-05-21T07:22:08.826Z,20.30
2018-05-21T07:24:37.090Z,20.40
2018-05-21T07:27:05.403Z,20.40
2018-05-21T07:29:34.432Z,20.60
2018-05-21T07:32:02.671Z,20.50
2018-05-21T07:34:31.697Z,20.70
2018-05-21T07:36:59.963Z,20.70
2018-05-21T07:39:28.206Z,20.80
2018-05-21T07:41:57.223Z,21.00
2018-05-21T07:44:25.516Z,20.90
2018-05-21T07:46:53.781Z,21.00
2018-05-21T07:49:22.025Z,21.10
2018-05-21T07:51:50.349Z,21.20
2018-05-21T07:54:18.644Z,21.20
2018-05-21T07:56:46.922Z,21.30
2018-05-21T07:59:15.202Z,21.30
2018-05-21T08:01:43.472Z,21.40
2018-05-21T08:04:11.949Z,21.50
2018-05-21T08:06:40.185Z,21.60
2018-05-21T08:09:09.234Z,21.70
2018-05-21T08:11:37.477Z,21.70
2018-05-21T08:14:05.797Z,21.80
2018-05-21T08:16:34.096Z,21.90
2018-05-21T08:19:03.159Z,22.10
2018-05-21T08:21:31.498Z,22.00
2018-05-21T08:23:59.807Z,22.10
2018-05-21T08:26:28.784Z,22.20
2018-05-21T08:28:57.034Z,22.20
2018-05-21T08:31:26.070Z,22.30
2018-05-21T08:33:55.182Z,22.40
2018-05-21T08:36:23.427Z,22.30
2018-05-21T08:38:51.729Z,22.40
2018-05-21T08:41:20.018Z,22.50
2018-05-21T08:43:48.269Z,22.60
2018-05-21T08:46:16.527Z,22.60
2018-05-21T08:48:44.784Z,22.70
2018-05-21T08:51:13.830Z,22.80
2018-05-21T08:53:42.104Z,22.70
2018-05-21T08:56:10.370Z,22.80
2018-05-21T08:58:38.653Z,22.80
2018-05-21T09:01:06.892Z,22.80
2018-05-21T09:03:35.202Z,22.80
2018-05-21T09:06:03.490Z,22.90
2018-05-21T09:08:31.734Z,23.00
2018-05-21T09:11:00.001Z,23.00
2018-05-21T09:13:28.288Z,23.10
2018-05-21T09:15:56.560Z,23.20
2018-05-21T09:18:24.841Z,23.30
2018-05-21T09:20:53.194Z,23.40
2018-05-21T09:23:22.248Z,23.50
2018-05-21T09:25:50.500Z,23.40
2018-05-21T09:28:19.717Z,23.50
2018-05-21T09:30:48.038Z,23.50
2018-05-21T09:33:17.095Z,23.60
2018-05-21T09:35:45.435Z,23.60
2018-05-21T09:38:13.715Z,23.60
2018-05-21T09:40:41.990Z,23.70
2018-05-21T09:43:10.272Z,23.70
2018-05-21T09:45:38.551Z,23.80
2018-05-21T09:48:06.955Z,23.80
2018-05-21T09:50:35.950Z,23.90
2018-05-21T09:53:04.270Z,23.90
2018-05-21T09:55:33.315Z,24.10
2018-05-21T09:58:01.592Z,24.00
2018-05-21T10:00:29.918Z,24.10
2018-05-21T10:02:58.947Z,24.20
2018-05-21T10:05:32.361Z,24.20
2018-05-21T10:08:01.023Z,24.20
2018-05-21T10:10:29.289Z,24.20
2018-05-21T10:12:58.430Z,24.20
2018-05-21T10:15:27.537Z,24.10
2018-05-21T10:17:56.072Z,24.10
2018-05-21T10:20:24.396Z,24.20
2018-05-21T10:22:52.668Z,24.30
2018-05-21T10:25:20.996Z,24.40
2018-05-21T10:27:50.012Z,24.50
2018-05-21T10:30:18.377Z,24.40
2018-05-21T10:32:46.669Z,24.60
2018-05-21T10:35:14.977Z,24.60
2018-05-21T10:37:43.218Z,24.60
2018-05-21T10:40:11.536Z,24.60
2018-05-21T10:42:39.809Z,24.70
2018-05-21T10:45:08.082Z,24.70
2018-05-21T10:47:37.088Z,24.70
2018-05-21T10:50:05.369Z,24.70
2018-05-21T10:52:33.669Z,24.80
2018-05-21T10:55:02.721Z,25.00
2018-05-21T10:57:31.073Z,24.90
2018-05-21T11:00:00.109Z,25.00
2018-05-21T11:02:28.407Z,25.00
2018-05-21T11:04:57.452Z,25.10
2018-05-21T11:07:25.716Z,25.00
2018-05-21T11:09:54.002Z,25.10
2018-05-21T11:12:22.352Z,25.20
2018-05-21T11:14:50.648Z,25.30
2018-05-21T11:17:18.916Z,25.30
2018-05-21T11:19:47.204Z,25.40
2018-05-21T11:22:15.522Z,25.50
2018-05-21T11:24:43.796Z,25.50
2018-05-21T11:27:12.092Z,25.60
2018-05-21T11:29:41.130Z,25.60
2018-05-21T11:32:09.443Z,25.50
2018-05-21T11:34:37.743Z,25.60
2018-05-21T11:37:06.821Z,25.60
2018-05-21T11:39:35.096Z,25.50
2018-05-21T11:45:15.818Z,25.60
2018-05-21T11:47:44.311Z,25.70
2018-05-21T11:50:12.581Z,25.70
2018-05-21T11:52:40.858Z,25.70
2018-05-21T11:55:09.101Z,25.70
2018-05-21T11:57:37.397Z,25.70
2018-05-21T12:00:06.511Z,25.90
2018-05-21T12:02:34.774Z,25.80
2018-05-21T12:05:03.851Z,26.00
2018-05-21T12:07:32.156Z,26.00
2018-05-21T12:10:00.406Z,26.10
2018-05-21T12:12:28.690Z,26.10
2018-05-21T12:14:57.692Z,26.00
2018-05-21T12:17:26.741Z,26.00
2018-05-21T12:19:55.078Z,26.00
2018-05-21T12:22:23.430Z,26.00
2018-05-21T12:24:51.645Z,26.00
2018-05-21T12:27:21.048Z,26.00
2018-05-21T12:32:28.175Z,26.10
2018-05-21T12:34:56.662Z,26.00
2018-05-21T12:37:24.918Z,26.00
2018-05-21T12:39:53.173Z,26.00
2018-05-21T12:42:21.419Z,26.00
2018-05-21T12:44:49.696Z,26.10
2018-05-21T12:47:17.955Z,26.10
2018-05-21T12:49:46.233Z,26.10
2018-05-21T12:52:14.556Z,26.10
2018-05-21T12:54:42.925Z,26.10
2018-05-21T12:57:11.218Z,26.10
2018-05-21T12:59:39.523Z,26.10
2018-05-21T13:05:09.736Z,26.40
2018-05-21T13:07:39.458Z,26.40
2018-05-21T13:10:07.740Z,26.30
2018-05-21T13:12:36.017Z,26.40
2018-05-21T13:15:04.254Z,26.40
2018-05-21T13:17:33.283Z,26.50
2018-05-21T13:20:01.575Z,26.50
2018-05-21T13:22:29.858Z,26.60
2018-05-21T13:24:58.253Z,26.60
2018-05-21T13:27:26.537Z,26.60
2018-05-21T13:29:54.788Z,26.60
2018-05-21T13:32:23.086Z,26.60
2018-05-21T13:34:51.387Z,26.70
2018-05-21T13:37:20.489Z,26.70
2018-05-21T13:39:53.527Z,26.70
2018-05-21T13:42:21.841Z,26.70
2018-05-21T13:44:50.904Z,26.70
2018-05-21T13:47:19.217Z,26.70
2018-05-21T13:49:49.619Z,26.70
2018-05-21T13:52:21.747Z,26.70
2018-05-21T13:54:50.505Z,26.70
2018-05-21T13:57:19.016Z,26.80
2018-05-21T13:59:47.339Z,26.80
2018-05-21T14:02:16.241Z,26.90
2018-05-21T15:17:18.824Z,27.20
2018-05-21T15:19:47.180Z,27.20
2018-05-21T15:22:15.909Z,27.10
2018-05-21T15:24:50.687Z,27.10
2018-05-21T15:30:38.650Z,27.10
2018-05-21T15:54:08.618Z,27.30
2018-05-21T15:56:36.909Z,27.30
2018-05-21T15:59:05.185Z,27.20
2018-05-21T16:01:33.429Z,27.20
2018-05-21T16:04:01.698Z,27.20
2018-05-21T16:06:29.935Z,27.20
2018-05-21T16:08:58.217Z,27.20
2018-05-21T16:11:26.549Z,27.10
2018-05-21T16:13:54.816Z,27.10
2018-05-21T16:16:23.096Z,27.10
2018-05-21T16:18:51.351Z,27.20
2018-05-21T16:21:19.690Z,27.20
2018-05-21T16:23:48.924Z,27.20
2018-05-21T16:26:17.291Z,27.10
2018-05-21T16:28:45.538Z,27.10
2018-05-21T16:31:14.615Z,27.00
2018-05-21T16:33:42.902Z,27.00
2018-05-21T16:36:11.193Z,27.00
2018-05-21T16:38:40.261Z,27.00
2018-05-21T16:41:08.560Z,27.00
2018-05-21T16:43:37.582Z,27.00
2018-05-21T16:46:06.618Z,26.90
2018-05-21T16:48:34.909Z,26.90
2018-05-21T16:51:03.340Z,26.80
2018-05-21T16:53:32.568Z,26.80
2018-05-21T16:56:00.885Z,26.80
2018-05-21T16:58:29.923Z,26.80
2018-05-21T17:00:58.236Z,26.80
2018-05-21T17:03:26.528Z,26.80
2018-05-21T17:05:55.838Z,26.70
2018-05-21T17:08:24.877Z,26.60
2018-05-21T17:10:53.135Z,26.60
2018-05-21T17:13:21.416Z,26.60
2018-05-21T17:15:49.707Z,26.60
2018-05-21T17:18:18.100Z,26.50
2018-05-21T17:21:07.026Z,26.50
2018-05-21T17:23:54.152Z,26.40
2018-05-21T17:26:24.292Z,26.20
2018-05-21T17:28:52.576Z,26.20
2018-05-21T17:31:20.829Z,26.10
2018-05-21T17:33:49.089Z,26.00
2018-05-21T17:36:17.334Z,26.00
2018-05-21T17:38:45.606Z,25.90
2018-05-21T17:41:13.893Z,25.80
2018-05-21T17:43:42.933Z,25.60
2018-05-21T17:46:11.188Z,25.60
2018-05-21T17:48:39.405Z,25.60
2018-05-21T17:51:07.688Z,25.50
2018-05-21T17:53:35.972Z,25.40
2018-05-21T17:56:04.260Z,25.30
2018-05-21T17:58:32.521Z,25.30
2018-05-21T18:01:00.760Z,25.30
2018-05-21T18:03:29.022Z,25.30
2018-05-21T18:05:57.388Z,25.20
2018-05-21T18:08:26.426Z,25.10
2018-05-21T18:10:54.694Z,25.00
2018-05-21T18:13:22.987Z,25.00
2018-05-21T18:15:51.267Z,24.90
2018-05-21T18:18:19.510Z,24.90
2018-05-21T18:20:47.787Z,24.80
2018-05-21T18:23:16.042Z,24.80
2018-05-21T18:25:45.099Z,24.60
2018-05-21T18:28:13.662Z,24.60
2018-05-21T18:30:41.909Z,24.60
2018-05-21T18:33:10.177Z,24.60
2018-05-21T18:35:38.466Z,24.50
2018-05-21T18:38:06.704Z,24.40
2018-05-21T18:40:34.948Z,24.40
2018-05-21T18:43:03.212Z,24.30
2018-05-21T18:45:31.481Z,24.30
2018-05-21T18:47:59.729Z,24.20
2018-05-21T18:50:28.787Z,24.10
2018-05-21T18:52:57.835Z,24.00
2018-05-21T18:55:26.130Z,24.00
2018-05-21T18:57:54.419Z,24.00
2018-05-21T19:00:22.747Z,23.90
2018-05-21T19:02:51.773Z,23.80
2018-05-21T19:05:20.033Z,23.80
2018-05-21T19:07:48.289Z,23.80
2018-05-21T19:10:17.333Z,23.70
2018-05-21T19:12:46.833Z,23.60
2018-05-21T19:15:15.664Z,23.70
2018-05-21T19:17:43.869Z,23.60
2018-05-21T19:20:12.917Z,23.50
2018-05-21T19:22:41.184Z,23.40
2018-05-21T19:25:09.601Z,23.40
2018-05-21T19:27:38.668Z,23.30
2018-05-21T19:30:06.938Z,23.30
2018-05-21T19:32:35.252Z,23.30
2018-05-21T19:35:04.362Z,23.20
2018-05-21T19:37:32.607Z,23.10
2018-05-21T19:40:00.903Z,23.10
2018-05-21T19:42:53.134Z,23.10
2018-05-21T19:45:21.392Z,23.00
2018-05-21T19:47:56.228Z,23.00
2018-05-21T19:50:24.519Z,22.90
2018-05-21T19:52:53.619Z,22.90
2018-05-21T19:55:22.634Z,22.80
2018-05-21T19:57:51.647Z,22.80
2018-05-21T20:00:22.779Z,22.70
2018-05-21T20:02:51.052Z,22.70
2018-05-21T20:05:19.322Z,22.70
2018-05-21T20:07:47.616Z,22.60
2018-05-21T20:10:16.416Z,22.60
2018-05-21T20:12:44.645Z,22.60
2018-05-21T20:15:13.678Z,22.50
2018-05-21T20:17:42.009Z,22.40
2018-05-21T20:20:10.264Z,22.50
2018-05-21T20:22:38.510Z,22.40
2018-05-21T20:25:06.752Z,22.40
2018-05-21T20:27:35.763Z,22.30
2018-05-21T20:30:04.064Z,22.30
2018-05-21T20:32:33.083Z,22.20
2018-05-21T20:35:01.406Z,22.20
2018-05-21T20:37:30.413Z,22.20
2018-05-21T20:39:58.666Z,22.10
2018-05-21T20:42:27.660Z,22.00
2018-05-21T20:44:56.678Z,22.00
2018-05-21T20:47:24.967Z,21.90
2018-05-21T20:49:53.224Z,22.00
2018-05-21T20:52:21.506Z,21.90
2018-05-21T20:54:49.780Z,21.80
2018-05-21T20:57:18.050Z,21.80
2018-05-21T20:59:46.340Z,21.70
2018-05-21T21:02:14.661Z,21.60
2018-05-21T21:04:43.019Z,21.60
2018-05-21T21:07:11.267Z,21.50
2018-05-21T21:09:39.506Z,21.40
2018-05-21T21:12:08.579Z,21.30
2018-05-21T21:14:36.928Z,21.30
2018-05-21T21:17:05.120Z,21.30
2018-05-21T21:19:33.390Z,21.20
2018-05-21T21:22:01.671Z,21.10
2018-05-21T21:24:29.930Z,21.10
2018-05-21T21:26:58.245Z,21.10
2018-05-21T21:29:26.517Z,21.00
2018-05-21T21:31:54.806Z,20.90
2018-05-21T21:34:23.085Z,20.90
2018-05-21T21:36:51.351Z,20.80
2018-05-21T21:39:19.612Z,20.70
2018-05-21T21:41:47.849Z,20.70
2018-05-21T21:44:16.109Z,20.60
2018-05-21T21:46:45.164Z,20.60
2018-05-21T21:49:13.446Z,20.50
2018-05-21T21:51:41.683Z,20.50
2018-05-21T21:54:09.948Z,20.50
2018-05-21T21:56:38.209Z,20.50
2018-05-21T21:59:07.283Z,20.40
2018-05-21T22:01:35.549Z,20.30
2018-05-21T22:04:03.836Z,20.40
2018-05-21T22:06:32.130Z,20.30
2018-05-21T22:09:01.133Z,20.20
2018-05-21T22:11:30.134Z,20.20
2018-05-21T22:13:59.191Z,20.10
2018-05-21T22:16:27.448Z,20.10
2018-05-21T22:18:55.713Z,20.10
2018-05-21T22:21:23.971Z,20.10
2018-05-21T22:23:52.250Z,20.00
2018-05-21T22:26:20.522Z,20.00
2018-05-21T22:28:48.823Z,20.00
2018-05-21T22:31:17.103Z,20.00
2018-05-21T22:33:45.391Z,20.00
2018-05-21T22:36:13.728Z,19.90
2018-05-21T22:38:42.016Z,19.90
2018-05-21T22:41:10.299Z,19.80
2018-05-21T22:43:38.619Z,19.80
2018-05-21T22:46:06.884Z,19.70
2018-05-21T22:48:35.192Z,19.70
2018-05-21T22:51:04.189Z,19.60
2018-05-21T22:53:33.226Z,19.60
2018-05-21T22:56:01.499Z,19.50
2018-05-21T22:58:29.781Z,19.50
2018-05-21T23:00:58.039Z,19.50
2018-05-21T23:03:26.347Z,19.50
2018-05-21T23:05:54.677Z,19.40
2018-05-21T23:08:23.726Z,19.30
2018-05-21T23:10:51.992Z,19.30
2018-05-21T23:13:20.256Z,19.30
2018-05-21T23:15:48.505Z,19.30
2018-05-21T23:18:17.565Z,19.20
2018-05-21T23:20:45.848Z,19.10
2018-05-21T23:23:14.125Z,19.10
2018-05-21T23:25:42.411Z,19.10
2018-05-21T23:28:11.509Z,19.00
2018-05-21T23:30:40.550Z,19.00
2018-05-21T23:33:08.861Z,18.90
2018-05-21T23:35:37.155Z,19.00
2018-05-21T23:38:06.185Z,18.90
2018-05-21T23:40:34.435Z,18.90
2018-05-21T23:43:03.451Z,18.80
2018-05-21T23:45:31.700Z,18.80
2018-05-21T23:48:00.694Z,18.80
2018-05-21T23:50:29.712Z,18.80
2018-05-21T23:52:58.029Z,18.70
2018-05-21T23:55:26.324Z,18.70
2018-05-21T23:57:54.565Z,18.70
